sensor_id;sensor_type;location;lat;lon;timestamp;pressure;altitude;pressure_sealevel;temperature;humidity
36380;BME280;22411;53.016;18.632;2023-10-09T00:00:34;101394.63;;;3.59;100.00
36380;BME280;22411;53.016;18.632;2023-10-09T00:03:25;101389.50;;;3.59;100.00
36380;BME280;22411;53.016;18.632;2023-10-09T00:05:53;101380.97;;;3.57;100.00
36380;BME280;22411;53.016;18.632;2023-10-09T00:08:20;101379.25;;;3.57;100.00
36380;BME280;22411;53.016;18.632;2023-10-09T00:10:52;101387.72;;;3.61;100.00
36380;BME280;22411;53.016;18.632;2023-10-09T00:13:26;101385.94;;;3.63;100.00
36380;BME280;22411;53.016;18.632;2023-10-09T00:15:57;101376.75;;;3.56;100.00
36380;BME280;22411;53.016;18.632;2023-10-09T00:18:27;101383.50;;;3.58;100.00
36380;BME280;22411;53.016;18.632;2023-10-09T00:20:59;101369.00;;;3.59;100.00
36380;BME280;22411;53.016;18.632;2023-10-09T00:23:40;101367.31;;;3.56;100.00
36380;BME280;22411;53.016;18.632;2023-10-09T00:26:07;101367.28;;;3.58;100.00
36380;BME280;22411;53.016;18.632;2023-10-09T00:28:36;101359.84;;;3.49;100.00
36380;BME280;22411;53.016;18.632;2023-10-09T00:31:06;101361.75;;;3.40;100.00
36380;BME280;22411;53.016;18.632;2023-10-09T00:33:34;101361.78;;;3.39;100.00
36380;BME280;22411;53.016;18.632;2023-10-09T00:36:04;101344.66;;;3.41;100.00
36380;BME280;22411;53.016;18.632;2023-10-09T00:38:36;101334.28;;;3.46;100.00
36380;BME280;22411;53.016;18.632;2023-10-09T00:41:05;101324.06;;;3.44;100.00
36380;BME280;22411;53.016;18.632;2023-10-09T00:43:36;101322.34;;;3.45;100.00
36380;BME280;22411;53.016;18.632;2023-10-09T00:46:04;101319.84;;;3.41;100.00
36380;BME280;22411;53.016;18.632;2023-10-09T00:48:54;101320.69;;;3.42;100.00
36380;BME280;22411;53.016;18.632;2023-10-09T00:51:22;101330.81;;;3.48;100.00
36380;BME280;22411;53.016;18.632;2023-10-09T00:53:52;101336.81;;;3.47;100.00
36380;BME280;22411;53.016;18.632;2023-10-09T00:56:20;101330.94;;;3.44;100.00
36380;BME280;22411;53.016;18.632;2023-10-09T00:58:58;101335.22;;;3.43;100.00
36380;BME280;22411;53.016;18.632;2023-10-09T01:01:32;101328.28;;;3.47;100.00
36380;BME280;22411;53.016;18.632;2023-10-09T01:04:03;101322.41;;;3.43;100.00
36380;BME280;22411;53.016;18.632;2023-10-09T01:06:44;101311.16;;;3.47;100.00
36380;BME280;22411;53.016;18.632;2023-10-09T01:09:12;101311.81;;;3.55;100.00
36380;BME280;22411;53.016;18.632;2023-10-09T01:11:40;101319.41;;;3.58;100.00
36380;BME280;22411;53.016;18.632;2023-10-09T01:14:31;101305.09;;;3.51;100.00
36380;BME280;22411;53.016;18.632;2023-10-09T01:17:04;101310.38;;;3.45;100.00
36380;BME280;22411;53.016;18.632;2023-10-09T01:19:54;101306.94;;;3.46;100.00
36380;BME280;22411;53.016;18.632;2023-10-09T01:22:22;101309.44;;;3.49;100.00
36380;BME280;22411;53.016;18.632;2023-10-09T01:24:47;101316.28;;;3.49;100.00
36380;BME280;22411;53.016;18.632;2023-10-09T01:27:15;101321.41;;;3.47;100.00
36380;BME280;22411;53.016;18.632;2023-10-09T01:29:42;101316.38;;;3.44;100.00
36380;BME280;22411;53.016;18.632;2023-10-09T01:32:09;101312.16;;;3.43;100.00
36380;BME280;22411;53.016;18.632;2023-10-09T01:34:45;101294.22;;;3.41;100.00
36380;BME280;22411;53.016;18.632;2023-10-09T01:37:16;101294.13;;;3.46;100.00
36380;BME280;22411;53.016;18.632;2023-10-09T01:39:49;101292.31;;;3.50;100.00
36380;BME280;22411;53.016;18.632;2023-10-09T01:42:17;101300.91;;;3.47;100.00
36380;BME280;22411;53.016;18.632;2023-10-09T01:44:53;101295.00;;;3.45;100.00
36380;BME280;22411;53.016;18.632;2023-10-09T01:47:19;101301.63;;;3.52;100.00
36380;BME280;22411;53.016;18.632;2023-10-09T01:49:47;101303.31;;;3.53;100.00
36380;BME280;22411;53.016;18.632;2023-10-09T01:52:18;101297.44;;;3.50;100.00
36380;BME280;22411;53.016;18.632;2023-10-09T01:54:45;101300.06;;;3.48;100.00
36380;BME280;22411;53.016;18.632;2023-10-09T01:57:15;101300.13;;;3.45;100.00
36380;BME280;22411;53.016;18.632;2023-10-09T01:59:48;101311.16;;;3.49;100.00
36380;BME280;22411;53.016;18.632;2023-10-09T02:02:21;101317.13;;;3.49;100.00
36380;BME280;22411;53.016;18.632;2023-10-09T02:07:35;101291.44;;;3.51;100.00
36380;BME280;22411;53.016;18.632;2023-10-09T02:10:07;101289.63;;;3.54;100.00
36380;BME280;22411;53.016;18.632;2023-10-09T02:12:53;101296.56;;;3.51;100.00
36380;BME280;22411;53.016;18.632;2023-10-09T02:15:26;101297.44;;;3.50;100.00
36380;BME280;22411;53.016;18.632;2023-10-09T02:18:12;101300.75;;;3.53;100.00
36380;BME280;22411;53.016;18.632;2023-10-09T02:20:45;101295.72;;;3.50;100.00
36380;BME280;22411;53.016;18.632;2023-10-09T02:23:12;101293.22;;;3.47;100.00
36380;BME280;22411;53.016;18.632;2023-10-09T02:25:40;101299.97;;;3.51;100.00
36380;BME280;22411;53.016;18.632;2023-10-09T02:28:09;101301.69;;;3.51;100.00
36380;BME280;22411;53.016;18.632;2023-10-09T02:30:44;101295.66;;;3.52;100.00
36380;BME280;22411;53.016;18.632;2023-10-09T02:33:17;101293.06;;;3.53;100.00
36380;BME280;22411;53.016;18.632;2023-10-09T02:35:56;101280.28;;;3.52;100.00
36380;BME280;22411;53.016;18.632;2023-10-09T02:38:27;101267.44;;;3.53;100.00
36380;BME280;22411;53.016;18.632;2023-10-09T02:40:53;101263.00;;;3.58;100.00
36380;BME280;22411;53.016;18.632;2023-10-09T02:43:28;101270.75;;;3.57;100.00
36380;BME280;22411;53.016;18.632;2023-10-09T02:46:02;101269.91;;;3.56;100.00
36380;BME280;22411;53.016;18.632;2023-10-09T02:48:39;101269.84;;;3.59;100.00
36380;BME280;22411;53.016;18.632;2023-10-09T02:51:10;101269.56;;;3.68;100.00
36380;BME280;22411;53.016;18.632;2023-10-09T02:54:02;101257.63;;;3.67;100.00
36380;BME280;22411;53.016;18.632;2023-10-09T02:56:58;101255.97;;;3.66;100.00
36380;BME280;22411;53.016;18.632;2023-10-09T02:59:36;101247.50;;;3.64;100.00
36380;BME280;22411;53.016;18.632;2023-10-09T03:02:07;101249.22;;;3.64;100.00
36380;BME280;22411;53.016;18.632;2023-10-09T03:04:33;101237.97;;;3.68;100.00
36380;BME280;22411;53.016;18.632;2023-10-09T03:07:02;101237.06;;;3.71;100.00
36380;BME280;22411;53.016;18.632;2023-10-09T03:09:29;101226.81;;;3.71;100.00
36380;BME280;22411;53.016;18.632;2023-10-09T03:12:01;101221.69;;;3.69;100.00
36380;BME280;22411;53.016;18.632;2023-10-09T03:14:28;101207.19;;;3.68;100.00
36380;BME280;22411;53.016;18.632;2023-10-09T03:16:58;101209.75;;;3.70;100.00
36380;BME280;22411;53.016;18.632;2023-10-09T03:19:29;101211.44;;;3.69;100.00
36380;BME280;22411;53.016;18.632;2023-10-09T03:21:55;101209.75;;;3.68;100.00
36380;BME280;22411;53.016;18.632;2023-10-09T03:24:27;101207.19;;;3.68;100.00
36380;BME280;22411;53.016;18.632;2023-10-09T03:26:53;101209.81;;;3.66;100.00
36380;BME280;22411;53.016;18.632;2023-10-09T03:29:22;101210.72;;;3.65;100.00
36380;BME280;22411;53.016;18.632;2023-10-09T03:31:47;101209.75;;;3.68;100.00
36380;BME280;22411;53.016;18.632;2023-10-09T03:34:16;101199.56;;;3.66;100.00
36380;BME280;22411;53.016;18.632;2023-10-09T03:36:42;101195.28;;;3.67;100.00
36380;BME280;22411;53.016;18.632;2023-10-09T03:39:09;101196.16;;;3.66;100.00
36380;BME280;22411;53.016;18.632;2023-10-09T03:41:55;101185.16;;;3.62;100.00
36380;BME280;22411;53.016;18.632;2023-10-09T03:44:24;101185.16;;;3.62;100.00
36380;BME280;22411;53.016;18.632;2023-10-09T03:46:54;101177.44;;;3.64;100.00
36380;BME280;22411;53.016;18.632;2023-10-09T03:49:20;101180.06;;;3.61;100.00
36380;BME280;22411;53.016;18.632;2023-10-09T03:51:53;101172.44;;;3.59;100.00
36380;BME280;22411;53.016;18.632;2023-10-09T03:54:19;101153.59;;;3.60;100.00
36380;BME280;22411;53.016;18.632;2023-10-09T03:56:49;101153.59;;;3.60;100.00
36380;BME280;22411;53.016;18.632;2023-10-09T03:59:18;101155.28;;;3.61;100.00
36380;BME280;22411;53.016;18.632;2023-10-09T04:01:49;101135.59;;;3.62;100.00
36380;BME280;22411;53.016;18.632;2023-10-09T04:04:18;101115.94;;;3.62;100.00
36380;BME280;22411;53.016;18.632;2023-10-09T04:06:48;101133.03;;;3.62;100.00
36380;BME280;22411;53.016;18.632;2023-10-09T04:09:14;101123.72;;;3.59;100.00
36380;BME280;22411;53.016;18.632;2023-10-09T04:11:50;101122.91;;;3.59;100.00
36380;BME280;22411;53.016;18.632;2023-10-09T04:14:39;101116.94;;;3.57;100.00
36380;BME280;22411;53.016;18.632;2023-10-09T04:17:21;101133.22;;;3.56;100.00
36380;BME280;22411;53.016;18.632;2023-10-09T04:20:03;101122.91;;;3.57;100.00
36380;BME280;22411;53.016;18.632;2023-10-09T04:22:44;101124.69;;;3.55;100.00
36380;BME280;22411;53.016;18.632;2023-10-09T04:25:28;101121.28;;;3.55;100.00
36380;BME280;22411;53.016;18.632;2023-10-09T04:27:55;101115.34;;;3.54;100.00
36380;BME280;22411;53.016;18.632;2023-10-09T04:30:41;101117.06;;;3.54;100.00
36380;BME280;22411;53.016;18.632;2023-10-09T04:33:09;101111.03;;;3.55;100.00
36380;BME280;22411;53.016;18.632;2023-10-09T04:35:37;101114.50;;;3.54;100.00
36380;BME280;22411;53.016;18.632;2023-10-09T04:38:03;101112.84;;;3.51;100.00
36380;BME280;22411;53.016;18.632;2023-10-09T04:40:31;101107.78;;;3.50;100.00
36380;BME280;22411;53.016;18.632;2023-10-09T04:43:13;101112.84;;;3.51;100.00
36380;BME280;22411;53.016;18.632;2023-10-09T04:45:49;101109.44;;;3.51;100.00
36380;BME280;22411;53.016;18.632;2023-10-09T04:48:37;101095.69;;;3.53;100.00
36380;BME280;22411;53.016;18.632;2023-10-09T04:51:05;101094.84;;;3.53;100.00
36380;BME280;22411;53.016;18.632;2023-10-09T04:53:47;101100.88;;;3.52;100.00
36380;BME280;22411;53.016;18.632;2023-10-09T04:56:36;101088.88;;;3.52;100.00
36380;BME280;22411;53.016;18.632;2023-10-09T04:59:20;101086.31;;;3.52;100.00
36380;BME280;22411;53.016;18.632;2023-10-09T05:01:51;101080.41;;;3.50;100.00
36380;BME280;22411;53.016;18.632;2023-10-09T05:04:29;101088.16;;;3.49;100.00
36380;BME280;22411;53.016;18.632;2023-10-09T05:07:04;101096.56;;;3.52;100.00
36380;BME280;22411;53.016;18.632;2023-10-09T05:09:50;101092.28;;;3.53;100.00
36380;BME280;22411;53.016;18.632;2023-10-09T05:12:32;101086.31;;;3.52;100.00
36380;BME280;22411;53.016;18.632;2023-10-09T05:14:58;101098.25;;;3.53;100.00
36380;BME280;22411;53.016;18.632;2023-10-09T05:17:37;101089.72;;;3.53;100.00
36380;BME280;22411;53.016;18.632;2023-10-09T05:20:04;101085.41;;;3.55;100.00
36380;BME280;22411;53.016;18.632;2023-10-09T05:22:49;101079.44;;;3.54;100.00
36380;BME280;22411;53.016;18.632;2023-10-09T05:25:26;101082.00;;;3.54;100.00
36380;BME280;22411;53.016;18.632;2023-10-09T05:28:10;101081.13;;;3.55;100.00
36380;BME280;22411;53.016;18.632;2023-10-09T05:30:57;101088.69;;;3.58;100.00
36380;BME280;22411;53.016;18.632;2023-10-09T05:33:35;101089.41;;;3.63;100.00
36380;BME280;22411;53.016;18.632;2023-10-09T05:36:04;101087.59;;;3.67;100.00
36380;BME280;22411;53.016;18.632;2023-10-09T05:38:48;101086.63;;;3.71;100.00
36380;BME280;22411;53.016;18.632;2023-10-09T05:41:27;101094.19;;;3.76;100.00
36380;BME280;22411;53.016;18.632;2023-10-09T05:44:32;101092.34;;;3.79;100.00
36380;BME280;22411;53.016;18.632;2023-10-09T05:47:16;101100.84;;;3.81;100.00
36380;BME280;22411;53.016;18.632;2023-10-09T05:50:00;101089.59;;;3.85;100.00
36380;BME280;22411;53.016;18.632;2023-10-09T05:52:49;101083.38;;;3.92;100.00
36380;BME280;22411;53.016;18.632;2023-10-09T05:55:18;101088.47;;;3.94;100.00
36380;BME280;22411;53.016;18.632;2023-10-09T05:58:02;101082.56;;;3.92;100.00
36380;BME280;22411;53.016;18.632;2023-10-09T06:00:51;101078.34;;;3.89;100.00
36380;BME280;22411;53.016;18.632;2023-10-09T06:03:35;101076.66;;;3.88;100.00
36380;BME280;22411;53.016;18.632;2023-10-09T06:06:15;101079.03;;;3.94;100.00
36380;BME280;22411;53.016;18.632;2023-10-09T06:09:04;101083.94;;;4.02;100.00
36380;BME280;22411;53.016;18.632;2023-10-09T06:11:39;101080.41;;;4.05;100.00
36380;BME280;22411;53.016;18.632;2023-10-09T06:14:06;101084.66;;;4.06;100.00
36380;BME280;22411;53.016;18.632;2023-10-09T06:16:38;101064.03;;;4.09;100.00
36380;BME280;22411;53.016;18.632;2023-10-09T06:19:12;101064.03;;;4.09;100.00
36380;BME280;22411;53.016;18.632;2023-10-09T06:21:52;101064.75;;;4.14;100.00
36380;BME280;22411;53.016;18.632;2023-10-09T06:24:19;101058.72;;;4.15;100.00
36380;BME280;22411;53.016;18.632;2023-10-09T06:26:46;101063.69;;;4.19;100.00
36380;BME280;22411;53.016;18.632;2023-10-09T06:29:30;101067.03;;;4.22;100.00
36380;BME280;22411;53.016;18.632;2023-10-09T06:32:03;101063.47;;;4.27;100.00
36380;BME280;22411;53.016;18.632;2023-10-09T06:34:44;101058.97;;;4.32;100.00
36380;BME280;22411;53.016;18.632;2023-10-09T06:37:14;101045.16;;;4.36;100.00
36380;BME280;22411;53.016;18.632;2023-10-09T06:39:52;101053.75;;;4.35;100.00
36380;BME280;22411;53.016;18.632;2023-10-09T06:42:27;101057.28;;;4.33;100.00
36380;BME280;22411;53.016;18.632;2023-10-09T06:45:03;101059.56;;;4.40;100.00
36380;BME280;22411;53.016;18.632;2023-10-09T06:47:50;101053.25;;;4.51;100.00
36380;BME280;22411;53.016;18.632;2023-10-09T06:50:22;101052.25;;;4.55;100.00
36380;BME280;22411;53.016;18.632;2023-10-09T06:52:56;101039.94;;;4.64;100.00
36380;BME280;22411;53.016;18.632;2023-10-09T06:55:38;101045.53;;;4.76;100.00
36380;BME280;22411;53.016;18.632;2023-10-09T06:58:15;101049.53;;;4.83;100.00
36380;BME280;22411;53.016;18.632;2023-10-09T07:00:49;101036.69;;;4.83;100.00
36380;BME280;22411;53.016;18.632;2023-10-09T07:03:27;101043.28;;;4.90;100.00
36380;BME280;22411;53.016;18.632;2023-10-09T07:06:11;101039.59;;;4.97;100.00
36380;BME280;22411;53.016;18.632;2023-10-09T07:08:56;101044.69;;;4.98;100.00
36380;BME280;22411;53.016;18.632;2023-10-09T07:14:24;101057.69;;;5.17;100.00
36380;BME280;22411;53.016;18.632;2023-10-09T07:17:03;101053.91;;;5.28;100.00
36380;BME280;22411;53.016;18.632;2023-10-09T07:19:43;101045.88;;;5.35;100.00
36380;BME280;22411;53.016;18.632;2023-10-09T07:22:09;101050.59;;;5.46;100.00
36380;BME280;22411;53.016;18.632;2023-10-09T07:24:52;101053.09;;;5.47;100.00
36380;BME280;22411;53.016;18.632;2023-10-09T07:27:29;101044.31;;;5.53;100.00
36380;BME280;22411;53.016;18.632;2023-10-09T07:30:16;101053.72;;;5.54;100.00
36380;BME280;22411;53.016;18.632;2023-10-09T07:33:00;101053.59;;;5.57;100.00
36380;BME280;22411;53.016;18.632;2023-10-09T07:35:37;101042.22;;;5.63;100.00
36380;BME280;22411;53.016;18.632;2023-10-09T07:38:14;101048.94;;;5.67;100.00
36380;BME280;22411;53.016;18.632;2023-10-09T07:40:46;101048.69;;;5.73;100.00
36380;BME280;22411;53.016;18.632;2023-10-09T07:43:38;101056.88;;;5.83;100.00
36380;BME280;22411;53.016;18.632;2023-10-09T07:46:14;101057.47;;;5.89;100.00
36380;BME280;22411;53.016;18.632;2023-10-09T07:49:00;101062.69;;;5.88;100.00
36380;BME280;22411;53.016;18.632;2023-10-09T07:51:36;101070.75;;;5.78;100.00
36380;BME280;22411;53.016;18.632;2023-10-09T07:54:02;101082.94;;;5.75;100.00
36380;BME280;22411;53.016;18.632;2023-10-09T07:56:35;101091.47;;;5.75;100.00
36380;BME280;22411;53.016;18.632;2023-10-09T07:59:05;101098.16;;;5.80;100.00
36380;BME280;22411;53.016;18.632;2023-10-09T08:01:44;101099.78;;;5.82;100.00
36380;BME280;22411;53.016;18.632;2023-10-09T08:04:23;101092.00;;;5.84;100.00
36380;BME280;22411;53.016;18.632;2023-10-09T08:07:10;101085.91;;;5.86;100.00
36380;BME280;22411;53.016;18.632;2023-10-09T08:09:45;101085.06;;;5.86;100.00
36380;BME280;22411;53.016;18.632;2023-10-09T08:12:34;101082.22;;;5.93;100.00
36380;BME280;22411;53.016;18.632;2023-10-09T08:15:16;101075.03;;;6.01;100.00
36380;BME280;22411;53.016;18.632;2023-10-09T08:20:25;101082.66;;;6.25;100.00
36380;BME280;22411;53.016;18.632;2023-10-09T08:22:54;101082.38;;;6.31;100.00
36380;BME280;22411;53.016;18.632;2023-10-09T08:25:24;101088.00;;;6.41;100.00
36380;BME280;22411;53.016;18.632;2023-10-09T08:27:56;101078.22;;;6.49;100.00
36380;BME280;22411;53.016;18.632;2023-10-09T08:30:45;101085.53;;;6.58;100.00
36380;BME280;22411;53.016;18.632;2023-10-09T08:33:16;101077.50;;;6.66;100.00
36380;BME280;22411;53.016;18.632;2023-10-09T08:35:51;101069.63;;;6.69;100.00
36380;BME280;22411;53.016;18.632;2023-10-09T08:38:17;101044.00;;;6.66;100.00
36380;BME280;22411;53.016;18.632;2023-10-09T08:40:50;101042.91;;;6.71;100.00
36380;BME280;22411;53.016;18.632;2023-10-09T08:43:21;101042.13;;;6.69;100.00
36380;BME280;22411;53.016;18.632;2023-10-09T08:45:53;101050.00;;;6.66;100.00
36380;BME280;22411;53.016;18.632;2023-10-09T08:48:20;101053.59;;;6.62;100.00
36380;BME280;22411;53.016;18.632;2023-10-09T08:50:48;101052.69;;;6.63;100.00
36380;BME280;22411;53.016;18.632;2023-10-09T08:53:20;101040.34;;;6.71;100.00
36380;BME280;22411;53.016;18.632;2023-10-09T08:55:46;101029.88;;;6.74;100.00
36380;BME280;22411;53.016;18.632;2023-10-09T08:58:16;101032.41;;;6.76;100.00
36380;BME280;22411;53.016;18.632;2023-10-09T09:00:47;101036.56;;;6.78;100.00
36380;BME280;22411;53.016;18.632;2023-10-09T09:03:18;101030.47;;;6.81;100.00
36380;BME280;22411;53.016;18.632;2023-10-09T09:05:48;101026.06;;;6.83;100.00
36380;BME280;22411;53.016;18.632;2023-10-09T09:08:22;101021.47;;;6.90;100.00
36380;BME280;22411;53.016;18.632;2023-10-09T09:10:56;101021.13;;;6.97;100.00
36380;BME280;22411;53.016;18.632;2023-10-09T09:13:24;101013.25;;;7.00;100.00
36380;BME280;22411;53.016;18.632;2023-10-09T09:15:50;101019.63;;;7.12;100.00
36380;BME280;22411;53.016;18.632;2023-10-09T09:18:19;101019.88;;;7.25;100.00
36380;BME280;22411;53.016;18.632;2023-10-09T09:20:47;101015.34;;;7.30;100.00
36380;BME280;22411;53.016;18.632;2023-10-09T09:23:14;101012.56;;;7.34;100.00
36380;BME280;22411;53.016;18.632;2023-10-09T09:25:46;101019.25;;;7.39;100.00
36380;BME280;22411;53.016;18.632;2023-10-09T09:28:25;101020.69;;;7.44;100.00
36380;BME280;22411;53.016;18.632;2023-10-09T09:30:53;101017.00;;;7.50;100.00
36380;BME280;22411;53.016;18.632;2023-10-09T09:35:56;101014.00;;;7.76;100.00
36380;BME280;22411;53.016;18.632;2023-10-09T09:38:28;101007.78;;;7.80;100.00
36380;BME280;22411;53.016;18.632;2023-10-09T09:40:56;101005.72;;;7.87;100.00
36380;BME280;22411;53.016;18.632;2023-10-09T09:43:23;101009.53;;;7.97;100.00
36380;BME280;22411;53.016;18.632;2023-10-09T09:45:52;101014.13;;;7.91;100.00
36380;BME280;22411;53.016;18.632;2023-10-09T09:48:19;101014.59;;;7.81;100.00
36380;BME280;22411;53.016;18.632;2023-10-09T09:50:45;101023.75;;;7.70;100.00
36380;BME280;22411;53.016;18.632;2023-10-09T09:53:15;101012.38;;;7.74;100.00
36380;BME280;22411;53.016;18.632;2023-10-09T09:55:54;101006.31;;;7.75;100.00
36380;BME280;22411;53.016;18.632;2023-10-09T09:58:24;101005.34;;;7.77;100.00
36380;BME280;22411;53.016;18.632;2023-10-09T10:00:52;101002.66;;;7.79;100.00
36380;BME280;22411;53.016;18.632;2023-10-09T10:03:27;100993.75;;;7.86;100.00
36380;BME280;22411;53.016;18.632;2023-10-09T10:05:56;101005.63;;;7.89;100.00
36380;BME280;22411;53.016;18.632;2023-10-09T10:08:23;101008.75;;;7.95;100.00
36380;BME280;22411;53.016;18.632;2023-10-09T10:10:58;101001.91;;;7.94;100.00
36380;BME280;22411;53.016;18.632;2023-10-09T10:16:11;100998.91;;;8.03;100.00
36380;BME280;22411;53.016;18.632;2023-10-09T10:21:26;101007.25;;;8.08;100.00
36380;BME280;22411;53.016;18.632;2023-10-09T10:24:01;100999.31;;;8.11;100.00
36380;BME280;22411;53.016;18.632;2023-10-09T10:26:36;100994.09;;;8.13;100.00
36380;BME280;22411;53.016;18.632;2023-10-09T10:32:00;100982.78;;;8.16;100.00
36380;BME280;22411;53.016;18.632;2023-10-09T10:37:15;100975.16;;;8.30;100.00
36380;BME280;22411;53.016;18.632;2023-10-09T10:39:51;100976.81;;;8.48;100.00
36380;BME280;22411;53.016;18.632;2023-10-09T10:42:17;100985.38;;;8.66;100.00
36380;BME280;22411;53.016;18.632;2023-10-09T10:45:04;100984.81;;;8.77;100.00
36380;BME280;22411;53.016;18.632;2023-10-09T10:47:55;100974.47;;;8.93;100.00
36380;BME280;22411;53.016;18.632;2023-10-09T10:50:23;100970.88;;;9.11;100.00
36380;BME280;22411;53.016;18.632;2023-10-09T10:53:28;100968.38;;;9.25;100.00
36380;BME280;22411;53.016;18.632;2023-10-09T10:56:01;100966.25;;;9.48;100.00
36380;BME280;22411;53.016;18.632;2023-10-09T10:58:52;100967.19;;;9.77;100.00
36380;BME280;22411;53.016;18.632;2023-10-09T11:01:33;100966.09;;;9.95;100.00
36380;BME280;22411;53.016;18.632;2023-10-09T11:04:22;100961.06;;;10.08;100.00
36380;BME280;22411;53.016;18.632;2023-10-09T11:06:53;100958.56;;;10.20;100.00
36380;BME280;22411;53.016;18.632;2023-10-09T11:09:47;100952.72;;;10.17;100.00
36380;BME280;22411;53.016;18.632;2023-10-09T11:12:42;100950.97;;;10.17;100.00
36380;BME280;22411;53.016;18.632;2023-10-09T11:15:12;100949.78;;;10.23;100.00
36380;BME280;22411;53.016;18.632;2023-10-09T11:18:06;100948.31;;;10.33;100.00
36380;BME280;22411;53.016;18.632;2023-10-09T11:20:34;100954.16;;;10.37;100.00
36380;BME280;22411;53.016;18.632;2023-10-09T11:23:01;100948.25;;;10.35;100.00
36380;BME280;22411;53.016;18.632;2023-10-09T11:25:42;100938.50;;;10.38;100.00
36380;BME280;22411;53.016;18.632;2023-10-09T11:28:19;100941.59;;;10.45;100.00
36380;BME280;22411;53.016;18.632;2023-10-09T11:31:13;100934.53;;;10.47;100.00
36380;BME280;22411;53.016;18.632;2023-10-09T11:33:46;100933.31;;;10.53;100.00
36380;BME280;22411;53.016;18.632;2023-10-09T11:36:15;100940.66;;;10.60;100.00
36380;BME280;22411;53.016;18.632;2023-10-09T11:38:41;100933.50;;;10.64;100.00
36380;BME280;22411;53.016;18.632;2023-10-09T11:41:12;100936.56;;;10.70;100.00
36380;BME280;22411;53.016;18.632;2023-10-09T11:43:52;100937.72;;;10.79;100.00
36380;BME280;22411;53.016;18.632;2023-10-09T11:46:22;100928.88;;;10.96;100.00
36380;BME280;22411;53.016;18.632;2023-10-09T11:49:07;100929.34;;;11.03;100.00
36380;BME280;22411;53.016;18.632;2023-10-09T11:51:51;100926.97;;;11.12;100.00
36380;BME280;22411;53.016;18.632;2023-10-09T11:54:55;100926.09;;;11.26;100.00
36380;BME280;22411;53.016;18.632;2023-10-09T11:57:23;100933.91;;;11.39;100.00
36380;BME280;22411;53.016;18.632;2023-10-09T11:59:56;100938.44;;;11.49;100.00
36380;BME280;22411;53.016;18.632;2023-10-09T12:02:23;100938.88;;;11.69;100.00
36380;BME280;22411;53.016;18.632;2023-10-09T12:04:48;100923.09;;;11.72;100.00
36380;BME280;22411;53.016;18.632;2023-10-09T12:07:14;100929.28;;;11.84;100.00
36380;BME280;22411;53.016;18.632;2023-10-09T12:09:40;100923.34;;;11.94;100.00
36380;BME280;22411;53.016;18.632;2023-10-09T12:12:08;100917.84;;;12.12;100.00
36380;BME280;22411;53.016;18.632;2023-10-09T12:14:37;100918.34;;;12.17;100.00
36380;BME280;22411;53.016;18.632;2023-10-09T12:17:07;100915.69;;;12.18;100.00
36380;BME280;22411;53.016;18.632;2023-10-09T12:19:37;100905.78;;;12.23;100.00
36380;BME280;22411;53.016;18.632;2023-10-09T12:22:07;100910.25;;;12.34;100.00
36380;BME280;22411;53.016;18.632;2023-10-09T12:24:41;100906.78;;;12.46;100.00
36380;BME280;22411;53.016;18.632;2023-10-09T12:27:09;100903.31;;;12.59;100.00
36380;BME280;22411;53.016;18.632;2023-10-09T12:29:38;100903.72;;;12.65;100.00
36380;BME280;22411;53.016;18.632;2023-10-09T12:32:10;100904.16;;;12.59;100.00
36380;BME280;22411;53.016;18.632;2023-10-09T12:34:36;100889.78;;;12.66;100.00
36380;BME280;22411;53.016;18.632;2023-10-09T12:37:04;100890.75;;;13.37;100.00
36380;BME280;22411;53.016;18.632;2023-10-09T12:39:30;100879.84;;;14.23;100.00
36380;BME280;22411;53.016;18.632;2023-10-09T12:42:02;100879.75;;;14.47;96.47
36380;BME280;22411;53.016;18.632;2023-10-09T12:44:34;100864.66;;;14.62;95.24
36380;BME280;22411;53.016;18.632;2023-10-09T12:47:08;100862.50;;;15.31;95.17
36380;BME280;22411;53.016;18.632;2023-10-09T12:49:37;100853.94;;;16.23;85.36
36380;BME280;22411;53.016;18.632;2023-10-09T12:52:09;100857.38;;;17.12;73.04
36380;BME280;22411;53.016;18.632;2023-10-09T12:54:45;100860.06;;;17.68;65.71
36380;BME280;22411;53.016;18.632;2023-10-09T12:57:14;100861.09;;;18.05;60.13
36380;BME280;22411;53.016;18.632;2023-10-09T12:59:40;100859.38;;;18.13;54.76
36380;BME280;22411;53.016;18.632;2023-10-09T13:02:14;100863.78;;;18.13;55.94
36380;BME280;22411;53.016;18.632;2023-10-09T13:04:55;100851.34;;;18.24;56.73
36380;BME280;22411;53.016;18.632;2023-10-09T13:07:21;100856.38;;;18.36;57.15
36380;BME280;22411;53.016;18.632;2023-10-09T13:09:48;100853.66;;;18.00;56.40
36380;BME280;22411;53.016;18.632;2023-10-09T13:12:32;100845.81;;;16.95;62.52
36380;BME280;22411;53.016;18.632;2023-10-09T13:15:00;100842.88;;;16.09;66.70
36380;BME280;22411;53.016;18.632;2023-10-09T13:17:26;100844.84;;;15.24;81.60
36380;BME280;22411;53.016;18.632;2023-10-09T13:19:53;100834.56;;;14.58;nan
36380;BME280;22411;53.016;18.632;2023-10-09T13:22:20;100835.19;;;13.94;93.64
36380;BME280;22411;53.016;18.632;2023-10-09T13:24:48;100824.97;;;13.46;100.00
36380;BME280;22411;53.016;18.632;2023-10-09T13:27:15;100826.53;;;13.14;100.00
36380;BME280;22411;53.016;18.632;2023-10-09T13:29:47;100831.19;;;12.97;100.00
36380;BME280;22411;53.016;18.632;2023-10-09T13:32:13;100834.66;;;12.85;100.00
36380;BME280;22411;53.016;18.632;2023-10-09T13:34:43;100831.53;;;12.69;100.00